createdAt,value
2023-08-11T00:02:06.568Z,2.60
2023-08-11T00:04:34.267Z,3.13
2023-08-11T00:07:04.121Z,2.40
2023-08-11T00:09:32.071Z,2.53
2023-08-11T00:11:59.504Z,2.75
2023-08-11T00:14:27.717Z,2.15
2023-08-11T00:16:55.125Z,2.75
2023-08-11T00:19:22.904Z,3.03
2023-08-11T00:21:50.287Z,3.63
2023-08-11T00:24:17.945Z,2.88
2023-08-11T00:26:45.291Z,3.60
2023-08-11T00:29:12.928Z,2.95
2023-08-11T00:31:40.364Z,2.15
2023-08-11T00:34:08.233Z,2.88
2023-08-11T00:36:35.565Z,3.70
2023-08-11T00:39:03.497Z,2.50
2023-08-11T00:41:31.493Z,2.75
2023-08-11T00:43:59.128Z,2.47
2023-08-11T00:46:26.613Z,2.50
2023-08-11T00:48:54.594Z,2.08
2023-08-11T00:51:24.061Z,3.50
2023-08-11T00:53:52.392Z,2.55
2023-08-11T00:56:20.800Z,2.97
2023-08-11T00:58:50.152Z,2.70
2023-08-11T01:01:17.782Z,3.00
2023-08-11T01:03:48.641Z,2.63
2023-08-11T01:06:22.898Z,2.85
2023-08-11T01:08:57.867Z,3.40
2023-08-11T01:11:25.241Z,2.83
2023-08-11T01:14:00.359Z,2.83
2023-08-11T01:16:28.250Z,2.97
2023-08-11T01:18:56.059Z,2.60
2023-08-11T01:21:26.148Z,3.58
2023-08-11T01:23:54.207Z,2.60
2023-08-11T01:26:21.630Z,2.75
2023-08-11T01:28:49.230Z,3.55
2023-08-11T01:31:16.634Z,2.40
2023-08-11T01:33:44.363Z,2.72
2023-08-11T01:36:11.706Z,2.97
2023-08-11T01:38:39.352Z,2.95
2023-08-11T01:41:07.719Z,2.50
2023-08-11T01:43:36.115Z,2.42
2023-08-11T01:46:03.997Z,2.38
2023-08-11T01:48:32.397Z,2.92
2023-08-11T01:50:59.901Z,2.17
2023-08-11T01:53:27.612Z,2.60
2023-08-11T01:55:55.780Z,2.30
2023-08-11T01:58:23.416Z,2.25
2023-08-11T02:00:50.789Z,2.40
2023-08-11T02:03:19.183Z,2.65
2023-08-11T02:05:46.640Z,3.10
2023-08-11T02:08:18.753Z,2.95
2023-08-11T02:10:46.722Z,3.20
2023-08-11T02:13:14.786Z,3.33
2023-08-11T02:15:42.124Z,3.20
2023-08-11T02:18:10.168Z,2.72
2023-08-11T02:20:37.740Z,3.03
2023-08-11T02:23:05.454Z,3.20
2023-08-11T02:25:32.857Z,3.67
2023-08-11T02:28:00.520Z,2.95
2023-08-11T02:30:30.828Z,2.70
2023-08-11T02:32:58.609Z,2.35
2023-08-11T02:35:25.969Z,2.97
2023-08-11T02:37:53.646Z,3.03
2023-08-11T02:40:21.448Z,2.83
2023-08-11T02:42:55.583Z,2.90
2023-08-11T02:45:23.092Z,2.60
2023-08-11T02:47:51.342Z,2.40
2023-08-11T02:50:19.107Z,2.55
2023-08-11T02:52:46.840Z,2.13
2023-08-11T02:55:14.182Z,2.47
2023-08-11T02:57:41.849Z,2.70
2023-08-11T03:00:16.201Z,2.38
2023-08-11T03:02:48.288Z,3.55
2023-08-11T03:05:16.465Z,2.38
2023-08-11T03:07:44.557Z,3.38
2023-08-11T03:10:12.373Z,3.13
2023-08-11T03:12:40.068Z,2.83
2023-08-11T03:15:07.944Z,2.58
2023-08-11T03:17:39.149Z,2.22
2023-08-11T03:20:16.385Z,1.98
2023-08-11T03:22:44.901Z,2.10
2023-08-11T03:25:12.921Z,1.70
2023-08-11T03:27:43.404Z,2.42
2023-08-11T03:30:12.146Z,2.40
2023-08-11T03:32:39.957Z,2.03
2023-08-11T03:35:07.827Z,1.85
2023-08-11T03:37:36.399Z,2.00
2023-08-11T03:40:07.245Z,1.98
2023-08-11T03:42:34.912Z,1.98
2023-08-11T03:45:02.415Z,2.40
2023-08-11T03:47:30.070Z,2.25
2023-08-11T03:49:57.428Z,2.55
2023-08-11T03:52:25.554Z,2.60
2023-08-11T03:54:53.562Z,2.10
2023-08-11T03:57:21.245Z,2.10
2023-08-11T03:59:48.568Z,2.65
2023-08-11T04:02:16.208Z,2.65
2023-08-11T04:04:43.614Z,2.30
2023-08-11T04:07:11.561Z,2.60
2023-08-11T04:09:44.787Z,2.28
2023-08-11T04:12:12.926Z,2.40
2023-08-11T04:14:40.340Z,2.50
2023-08-11T04:17:08.775Z,2.38
2023-08-11T04:19:36.184Z,2.13
2023-08-11T04:22:06.466Z,2.08
2023-08-11T04:24:34.092Z,3.08
2023-08-11T04:27:01.816Z,1.90
2023-08-11T04:29:29.198Z,2.60
2023-08-11T04:31:56.829Z,2.03
2023-08-11T04:34:24.400Z,2.80
2023-08-11T04:36:52.014Z,2.70
2023-08-11T04:39:19.401Z,2.10
2023-08-11T04:41:47.316Z,2.85
2023-08-11T04:44:15.496Z,2.45
2023-08-11T04:46:43.214Z,2.20
2023-08-11T04:49:10.628Z,2.20
2023-08-11T04:51:38.255Z,2.60
2023-08-11T04:54:05.916Z,2.45
2023-08-11T04:56:33.536Z,2.22
2023-08-11T04:59:01.671Z,3.03
2023-08-11T05:01:29.383Z,3.15
2023-08-11T05:03:56.820Z,2.28
2023-08-11T05:06:24.494Z,2.38
2023-08-11T05:08:51.889Z,2.17
2023-08-11T05:11:19.571Z,2.35
2023-08-11T05:13:47.057Z,2.10
2023-08-11T05:16:14.957Z,2.50
2023-08-11T05:18:44.272Z,2.15
2023-08-11T05:21:14.277Z,2.30
2023-08-11T05:23:41.697Z,2.55
2023-08-11T05:26:09.531Z,2.53
2023-08-11T05:28:36.991Z,2.70
2023-08-11T05:31:05.812Z,2.90
2023-08-11T05:33:34.612Z,2.67
2023-08-11T05:36:02.734Z,2.58
2023-08-11T05:38:30.092Z,2.53
2023-08-11T05:40:57.746Z,2.20
2023-08-11T05:43:25.177Z,2.30
2023-08-11T05:45:52.861Z,2.40
2023-08-11T05:48:20.207Z,2.17
2023-08-11T05:50:47.933Z,2.65
2023-08-11T05:53:15.325Z,2.10
2023-08-11T05:55:43.178Z,2.28
2023-08-11T05:58:10.543Z,2.53
2023-08-11T06:00:38.230Z,1.85
2023-08-11T06:03:05.757Z,2.65
2023-08-11T06:05:33.460Z,2.13
2023-08-11T06:08:06.772Z,2.58
2023-08-11T06:10:34.973Z,2.47
2023-08-11T06:13:02.427Z,2.55
2023-08-11T06:15:31.502Z,2.40
2023-08-11T06:17:58.973Z,3.08
2023-08-11T06:20:40.316Z,2.58
2023-08-11T06:23:09.630Z,2.28
2023-08-11T06:25:38.077Z,2.22
2023-08-11T06:28:05.586Z,2.60
2023-08-11T06:30:33.287Z,2.50
2023-08-11T06:33:00.750Z,2.35
2023-08-11T06:35:28.448Z,2.80
2023-08-11T06:37:55.859Z,2.25
2023-08-11T06:40:23.564Z,2.60
2023-08-11T06:42:50.948Z,2.33
2023-08-11T06:45:18.897Z,3.67
2023-08-11T06:47:46.262Z,2.72
2023-08-11T06:50:13.971Z,2.67
2023-08-11T06:52:41.397Z,2.28
2023-08-11T06:55:09.233Z,2.65
2023-08-11T06:57:38.239Z,2.05
2023-08-11T07:00:08.434Z,2.47
2023-08-11T07:02:36.519Z,2.60
2023-08-11T07:05:04.530Z,2.40
2023-08-11T07:07:31.918Z,2.30
2023-08-11T07:10:01.491Z,2.10
2023-08-11T07:12:31.198Z,2.20
2023-08-11T07:14:58.593Z,2.00
2023-08-11T07:17:26.304Z,2.20
2023-08-11T07:19:53.809Z,2.30
2023-08-11T07:22:21.514Z,2.38
2023-08-11T07:24:48.885Z,2.40
2023-08-11T07:27:19.104Z,2.13
2023-08-11T07:29:46.883Z,2.53
2023-08-11T07:32:14.510Z,2.10
2023-08-11T07:34:42.018Z,1.98
2023-08-11T07:37:09.920Z,2.05
2023-08-11T07:39:37.519Z,1.88
2023-08-11T07:42:05.961Z,2.08
2023-08-11T07:44:34.166Z,1.98
2023-08-11T07:47:03.705Z,1.92
2023-08-11T07:49:31.173Z,2.22
2023-08-11T07:51:58.909Z,2.13
2023-08-11T07:54:26.419Z,1.95
2023-08-11T07:56:54.046Z,1.58
2023-08-11T07:59:21.491Z,2.00
2023-08-11T08:01:53.269Z,2.85
2023-08-11T08:04:21.035Z,1.88
2023-08-11T08:06:48.686Z,2.17
2023-08-11T08:09:16.265Z,1.83
2023-08-11T08:11:44.831Z,1.77
2023-08-11T08:14:13.077Z,2.20
2023-08-11T08:16:45.665Z,1.88
2023-08-11T08:19:13.560Z,1.95
2023-08-11T08:21:42.174Z,1.85
2023-08-11T08:24:09.713Z,2.67
2023-08-11T08:26:37.511Z,1.98
2023-08-11T08:29:05.182Z,1.98
2023-08-11T08:31:32.970Z,1.98
2023-08-11T08:34:00.564Z,1.88
2023-08-11T08:36:28.365Z,1.77
2023-08-11T08:38:55.769Z,1.98
2023-08-11T08:41:29.024Z,1.80
2023-08-11T08:43:57.559Z,2.47
2023-08-11T08:46:29.590Z,2.88
2023-08-11T08:49:08.651Z,2.42
2023-08-11T08:51:38.615Z,2.10
2023-08-11T08:54:06.421Z,1.83
2023-08-11T08:56:34.065Z,2.42
2023-08-11T08:59:01.416Z,1.90
2023-08-11T09:01:30.104Z,1.92
2023-08-11T09:03:58.067Z,1.67
2023-08-11T09:06:27.042Z,2.00
2023-08-11T09:08:54.528Z,2.28
2023-08-11T09:11:25.662Z,1.85
2023-08-11T09:13:53.010Z,2.20
2023-08-11T09:16:24.415Z,1.73
2023-08-11T09:18:51.962Z,2.00
2023-08-11T09:21:21.515Z,1.98
2023-08-11T09:23:48.862Z,1.88
2023-08-11T09:26:17.090Z,1.88
2023-08-11T09:28:44.445Z,2.67
2023-08-11T09:31:13.602Z,2.28
2023-08-11T09:33:41.049Z,2.08
2023-08-11T09:36:09.142Z,2.20
2023-08-11T09:38:36.524Z,1.80
2023-08-11T09:41:04.838Z,1.80
2023-08-11T09:43:32.758Z,1.83
2023-08-11T09:46:01.460Z,2.00
2023-08-11T09:48:30.172Z,2.13
2023-08-11T09:50:58.968Z,2.10
2023-08-11T09:53:28.153Z,2.08
2023-08-11T09:55:56.936Z,2.17
2023-08-11T09:58:26.334Z,2.50
2023-08-11T10:01:01.214Z,2.17
2023-08-11T10:03:38.460Z,1.67
2023-08-11T10:06:06.821Z,1.70
2023-08-11T10:08:34.882Z,2.20
2023-08-11T10:11:02.760Z,1.95
2023-08-11T10:13:30.593Z,2.42
2023-08-11T10:15:58.650Z,2.13
2023-08-11T10:18:26.083Z,2.40
2023-08-11T10:20:53.877Z,2.17
2023-08-11T10:23:21.300Z,2.30
2023-08-11T10:25:49.210Z,2.50
2023-08-11T10:28:17.554Z,2.15
2023-08-11T10:30:45.185Z,2.47
2023-08-11T10:33:12.851Z,2.08
2023-08-11T10:35:53.648Z,2.08
2023-08-11T10:38:24.919Z,2.47
2023-08-11T10:40:58.196Z,1.90
2023-08-11T10:45:53.109Z,2.17
2023-08-11T10:48:24.298Z,2.65
2023-08-11T10:50:51.898Z,2.15
2023-08-11T10:53:23.578Z,2.00
2023-08-11T10:56:04.196Z,2.30
2023-08-11T10:58:31.578Z,1.85
2023-08-11T11:00:59.906Z,2.13
2023-08-11T11:03:27.849Z,1.88
2023-08-11T11:05:55.507Z,2.53
2023-08-11T11:08:22.968Z,2.08
2023-08-11T11:10:51.140Z,2.28
2023-08-11T11:13:18.980Z,1.88
2023-08-11T11:15:47.274Z,2.25
2023-08-11T11:18:14.757Z,2.03
2023-08-11T11:20:42.444Z,2.08
2023-08-11T11:23:09.763Z,2.08
2023-08-11T11:25:37.469Z,2.00
2023-08-11T11:28:05.622Z,2.15
2023-08-11T11:30:33.893Z,1.85
2023-08-11T11:33:03.607Z,2.70
2023-08-11T11:35:32.521Z,2.15
2023-08-11T11:38:00.087Z,2.28
2023-08-11T11:40:31.038Z,1.85
2023-08-11T11:42:58.432Z,2.30
2023-08-11T11:45:27.445Z,1.90
2023-08-11T11:47:56.086Z,3.20
2023-08-11T11:50:23.853Z,2.78
2023-08-11T11:52:51.231Z,2.22
2023-08-11T11:55:18.933Z,2.00
2023-08-11T11:57:46.359Z,2.38
2023-08-11T12:00:20.170Z,2.10
2023-08-11T12:02:49.052Z,2.20
2023-08-11T12:05:16.762Z,1.80
2023-08-11T12:07:44.755Z,2.20
2023-08-11T12:10:12.535Z,2.55
2023-08-11T12:12:40.325Z,2.33
2023-08-11T12:15:08.725Z,1.90
2023-08-11T12:17:37.162Z,2.13
2023-08-11T12:20:05.650Z,2.03
2023-08-11T12:22:33.570Z,2.65
2023-08-11T12:25:00.886Z,2.33
2023-08-11T12:27:29.723Z,2.35
2023-08-11T12:29:57.110Z,2.13
2023-08-11T12:32:24.811Z,1.95
2023-08-11T12:34:52.623Z,1.85
2023-08-11T12:37:20.297Z,2.50
2023-08-11T12:39:47.684Z,2.03
2023-08-11T12:42:15.591Z,1.98
2023-08-11T12:44:42.959Z,1.95
2023-08-11T12:47:10.600Z,2.50
2023-08-11T12:49:37.967Z,2.10
2023-08-11T12:52:06.001Z,2.22
2023-08-11T12:54:33.326Z,2.08
2023-08-11T12:57:00.943Z,2.03
2023-08-11T12:59:28.339Z,2.08
2023-08-11T13:01:56.055Z,2.00
2023-08-11T13:04:23.486Z,1.83
2023-08-11T13:06:51.105Z,1.90
2023-08-11T13:09:19.192Z,2.30
2023-08-11T13:11:46.815Z,2.38
2023-08-11T13:14:14.322Z,1.90
2023-08-11T13:16:42.106Z,2.08
2023-08-11T13:19:11.707Z,1.85
2023-08-11T13:21:40.823Z,2.42
2023-08-11T13:24:08.284Z,2.40
2023-08-11T13:26:36.306Z,2.30
2023-08-11T13:29:03.756Z,2.00
2023-08-11T13:31:31.475Z,2.22
2023-08-11T13:33:58.989Z,2.20
2023-08-11T13:36:26.700Z,2.25
2023-08-11T13:38:54.101Z,2.40
2023-08-11T13:41:21.733Z,2.30
2023-08-11T13:43:49.129Z,2.22
2023-08-11T13:46:17.670Z,2.35
2023-08-11T13:48:45.111Z,2.55
2023-08-11T13:51:12.850Z,2.50
2023-08-11T13:53:40.318Z,2.20
2023-08-11T13:56:10.052Z,2.00
2023-08-11T13:58:38.048Z,2.83
2023-08-11T14:01:05.748Z,3.22
2023-08-11T14:03:33.653Z,2.13
2023-08-11T14:06:01.387Z,2.03
2023-08-11T14:08:28.745Z,2.40
2023-08-11T14:10:56.409Z,2.25
2023-08-11T14:13:28.891Z,2.60
2023-08-11T14:15:57.789Z,2.35
2023-08-11T14:18:25.288Z,2.20
2023-08-11T14:20:52.963Z,2.15
2023-08-11T14:23:21.683Z,2.38
2023-08-11T14:25:51.766Z,2.55
2023-08-11T14:28:19.188Z,2.35
2023-08-11T14:30:47.113Z,2.88
2023-08-11T14:33:14.595Z,2.53
2023-08-11T14:35:42.381Z,2.53
2023-08-11T14:38:09.736Z,3.47
2023-08-11T14:40:37.402Z,2.85
2023-08-11T14:43:05.947Z,3.53
2023-08-11T14:45:33.639Z,3.78
2023-08-11T14:48:01.179Z,2.22
2023-08-11T14:50:28.833Z,2.45
2023-08-11T14:52:56.254Z,2.28
2023-08-11T14:55:23.920Z,2.60
2023-08-11T14:57:51.245Z,2.75
2023-08-11T15:00:18.947Z,2.53
2023-08-11T15:02:46.591Z,2.45
2023-08-11T15:05:14.677Z,2.50
2023-08-11T15:07:42.181Z,2.33
2023-08-11T15:10:10.077Z,2.28
2023-08-11T15:12:37.532Z,2.85
2023-08-11T15:15:05.740Z,2.90
2023-08-11T15:17:33.128Z,2.42
2023-08-11T15:20:00.852Z,2.55
2023-08-11T15:22:28.258Z,2.97
2023-08-11T15:24:56.183Z,3.10
2023-08-11T15:27:23.573Z,3.67
2023-08-11T15:29:51.206Z,5.30
2023-08-11T15:32:19.215Z,2.55
2023-08-11T15:34:46.865Z,2.67
2023-08-11T15:37:14.221Z,2.88
2023-08-11T15:39:41.976Z,3.15
2023-08-11T15:42:09.557Z,3.28
2023-08-11T15:44:37.412Z,2.67
2023-08-11T15:47:04.824Z,3.92
2023-08-11T15:49:32.756Z,14.88
2023-08-11T15:52:00.090Z,16.58
2023-08-11T15:54:28.005Z,18.35
2023-08-11T15:56:55.323Z,6.97
2023-08-11T15:59:23.206Z,16.70
2023-08-11T16:02:07.427Z,3.97
2023-08-11T16:04:37.903Z,7.22
2023-08-11T16:07:05.447Z,11.18
2023-08-11T16:09:33.067Z,12.98
2023-08-11T16:12:00.465Z,14.48
2023-08-11T16:14:29.075Z,14.35
2023-08-11T16:16:56.483Z,23.75
2023-08-11T16:19:25.604Z,8.75
2023-08-11T16:21:53.125Z,8.40
2023-08-11T16:24:20.766Z,14.20
2023-08-11T16:26:48.100Z,10.57
2023-08-11T16:29:15.770Z,8.25
2023-08-11T16:31:43.218Z,6.65
2023-08-11T16:34:10.593Z,4.95
2023-08-11T16:36:38.649Z,3.25
2023-08-11T16:39:06.347Z,5.55
2023-08-11T16:41:34.035Z,5.30
2023-08-11T16:44:01.527Z,5.28
2023-08-11T16:46:29.230Z,3.10
2023-08-11T16:48:56.631Z,3.08
2023-08-11T16:51:24.300Z,3.00
2023-08-11T16:53:51.670Z,2.65
2023-08-11T16:56:20.756Z,2.92
2023-08-11T16:58:48.205Z,2.67
2023-08-11T17:01:15.890Z,3.28
2023-08-11T17:03:43.923Z,3.85
2023-08-11T17:06:15.712Z,3.65
2023-08-11T17:08:43.168Z,3.88
2023-08-11T17:11:10.817Z,3.78
2023-08-11T17:13:38.201Z,3.58
2023-08-11T17:16:06.234Z,2.83
2023-08-11T17:18:33.600Z,3.90
2023-08-11T17:21:01.259Z,3.83
2023-08-11T17:23:30.089Z,3.70
2023-08-11T17:25:57.754Z,4.88
2023-08-11T17:28:25.119Z,4.07
2023-08-11T17:30:52.745Z,4.13
2023-08-11T17:33:20.232Z,3.28
2023-08-11T17:35:47.987Z,2.85
2023-08-11T17:38:15.300Z,2.50
2023-08-11T17:40:43.180Z,2.90
2023-08-11T17:43:11.458Z,2.83
2023-08-11T17:45:39.160Z,2.85
2023-08-11T17:48:06.783Z,3.40
2023-08-11T17:50:35.311Z,3.85
2023-08-11T17:53:02.693Z,3.30
2023-08-11T17:55:30.339Z,4.55
2023-08-11T17:57:57.740Z,2.72
2023-08-11T18:00:25.738Z,2.78
2023-08-11T18:02:53.174Z,3.15
2023-08-11T18:05:20.868Z,3.92
2023-08-11T18:07:48.247Z,3.30
2023-08-11T18:10:15.913Z,2.60
2023-08-11T18:12:43.283Z,2.90
2023-08-11T18:15:11.068Z,2.50
2023-08-11T18:17:38.491Z,2.13
2023-08-11T18:20:06.707Z,2.50
2023-08-11T18:22:34.190Z,2.60
2023-08-11T18:25:03.006Z,2.17
2023-08-11T18:27:32.278Z,2.63
2023-08-11T18:30:01.429Z,1.95
2023-08-11T18:32:28.836Z,14.60
2023-08-11T18:34:56.528Z,8.00
2023-08-11T18:37:27.351Z,3.28
2023-08-11T18:39:54.967Z,3.13
2023-08-11T18:42:22.352Z,2.78
2023-08-11T18:44:50.019Z,2.40
2023-08-11T18:47:17.897Z,2.80
2023-08-11T18:49:45.568Z,3.88
2023-08-11T18:52:20.556Z,4.94
2023-08-11T18:54:48.597Z,5.97
2023-08-11T18:57:15.944Z,6.20
2023-08-11T18:59:43.632Z,5.45
2023-08-11T19:02:11.652Z,7.63
2023-08-11T19:04:39.948Z,11.65
2023-08-11T19:07:07.406Z,12.25
2023-08-11T19:09:35.909Z,6.47
2023-08-11T19:12:03.314Z,5.55
2023-08-11T19:14:30.953Z,6.25
2023-08-11T19:16:58.343Z,7.28
2023-08-11T19:19:26.005Z,9.13
2023-08-11T19:21:55.698Z,11.32
2023-08-11T19:24:25.031Z,12.10
2023-08-11T19:26:52.358Z,8.55
2023-08-11T19:29:20.312Z,7.88
2023-08-11T19:31:47.774Z,7.95
2023-08-11T19:34:15.471Z,7.68
2023-08-11T19:36:44.292Z,7.85
2023-08-11T19:39:12.312Z,9.48
2023-08-11T19:41:40.043Z,9.30
2023-08-11T19:44:08.139Z,8.20
2023-08-11T19:46:35.583Z,7.70
2023-08-11T19:49:03.576Z,7.20
2023-08-11T19:51:32.499Z,7.93
2023-08-11T19:54:00.325Z,7.28
2023-08-11T19:56:27.787Z,7.13
2023-08-11T19:58:55.507Z,8.18
2023-08-11T20:01:22.998Z,8.10
2023-08-11T20:03:50.703Z,6.75
2023-08-11T20:06:18.061Z,6.25
2023-08-11T20:08:45.765Z,7.13
2023-08-11T20:11:13.162Z,8.57
2023-08-11T20:13:40.789Z,8.25
2023-08-11T20:16:08.434Z,6.40
2023-08-11T20:18:36.167Z,5.13
2023-08-11T20:21:03.568Z,6.72
2023-08-11T20:23:31.257Z,6.57
2023-08-11T20:25:58.633Z,6.90
2023-08-11T20:28:26.394Z,5.05
2023-08-11T20:30:53.961Z,5.05
2023-08-11T20:33:21.626Z,5.43
2023-08-11T20:35:49.010Z,4.90
2023-08-11T20:38:16.645Z,4.82
2023-08-11T20:40:44.001Z,4.95
2023-08-11T20:43:11.662Z,4.60
2023-08-11T20:45:39.063Z,3.78
2023-08-11T20:48:07.134Z,4.47
2023-08-11T20:50:37.106Z,4.30
2023-08-11T20:53:05.152Z,5.18
2023-08-11T20:55:32.497Z,5.15
2023-08-11T20:58:00.137Z,4.45
2023-08-11T21:00:27.470Z,4.85
2023-08-11T21:02:55.152Z,6.05
2023-08-11T21:05:22.536Z,4.82
2023-08-11T21:07:50.185Z,4.75
2023-08-11T21:10:17.638Z,4.43
2023-08-11T21:12:45.268Z,4.30
2023-08-11T21:15:14.676Z,5.13
2023-08-11T21:17:42.340Z,5.55
2023-08-11T21:20:09.879Z,5.60
2023-08-11T21:22:37.566Z,5.20
2023-08-11T21:25:05.087Z,5.15
2023-08-11T21:27:32.793Z,4.35
2023-08-11T21:30:00.238Z,4.40
2023-08-11T21:32:28.326Z,5.35
2023-08-11T21:34:57.152Z,4.28
2023-08-11T21:37:24.926Z,3.97
2023-08-11T21:39:52.353Z,4.38
2023-08-11T21:42:20.000Z,3.88
2023-08-11T21:44:47.377Z,5.93
2023-08-11T21:47:15.018Z,5.82
2023-08-11T21:49:44.561Z,5.80
2023-08-11T21:52:12.402Z,4.75
2023-08-11T21:54:40.082Z,4.35
2023-08-11T21:57:14.166Z,3.53
2023-08-11T21:59:42.313Z,3.70
2023-08-11T22:02:10.450Z,2.97
2023-08-11T22:04:38.322Z,3.28
2023-08-11T22:07:06.263Z,3.22
2023-08-11T22:09:33.643Z,4.75
2023-08-11T22:12:01.290Z,4.35
2023-08-11T22:14:28.649Z,4.65
2023-08-11T22:16:56.501Z,2.65
2023-08-11T22:19:23.832Z,3.15
2023-08-11T22:21:52.449Z,3.13
2023-08-11T22:24:34.666Z,3.28
2023-08-11T22:27:07.793Z,2.75
2023-08-11T22:29:35.799Z,3.22
2023-08-11T22:32:04.337Z,2.95
2023-08-11T22:34:31.748Z,2.70
2023-08-11T22:36:59.416Z,2.50
2023-08-11T22:39:27.153Z,2.80
2023-08-11T22:41:54.798Z,2.28
2023-08-11T22:44:22.171Z,2.40
2023-08-11T22:46:51.029Z,3.35
2023-08-11T22:49:18.640Z,2.22
2023-08-11T22:51:46.319Z,3.60
2023-08-11T22:54:16.085Z,3.08
2023-08-11T22:56:44.094Z,2.28
2023-08-11T22:59:11.416Z,2.42
2023-08-11T23:01:39.245Z,2.38
2023-08-11T23:04:06.817Z,2.88
2023-08-11T23:06:34.556Z,2.38
2023-08-11T23:09:01.945Z,2.58
2023-08-11T23:11:29.677Z,2.75
2023-08-11T23:13:57.029Z,2.30
2023-08-11T23:16:24.769Z,2.70
2023-08-11T23:18:52.240Z,2.42
2023-08-11T23:21:20.069Z,3.00
2023-08-11T23:23:47.505Z,2.25
2023-08-11T23:26:15.166Z,2.63
2023-08-11T23:28:42.532Z,2.22
2023-08-11T23:31:10.169Z,2.80
2023-08-11T23:33:37.527Z,2.15
2023-08-11T23:36:05.357Z,2.58
2023-08-11T23:38:34.059Z,2.83
2023-08-11T23:41:01.706Z,2.95
2023-08-11T23:43:29.085Z,2.40
2023-08-11T23:45:56.754Z,2.70
2023-08-11T23:48:24.177Z,2.65
2023-08-11T23:50:52.355Z,2.83
2023-08-11T23:53:19.804Z,2.28
2023-08-11T23:55:47.566Z,2.83
2023-08-11T23:58:14.899Z,2.47
